This is the latest recevied weather packets stored in our database for station/object KQ4JKJ. If no packets are shown the sender has not sent any weather packets the latest 10 day(s).
| Time | Temp. | Humidity | Pressure | Rain* | Wind** | Luminosity | Snow |
|---|---|---|---|---|---|---|---|
| 1777034730 | 23.33° C | 75% | 1009.9 hPa | 0 mm | - | 222 W/m² | - |
| 1777034427 | 23.33° C | 78% | 1010 hPa | 0 mm | - | 206 W/m² | - |
| 1777034124 | 22.78° C | 80% | 1009.9 hPa | 0 mm | - | 191 W/m² | - |
| 1777033823 | 22.22° C | 84% | 1010 hPa | 0 mm | - | 174 W/m² | - |
| 1777033521 | 21.11° C | 88% | 1010.1 hPa | 0 mm | - | 129 W/m² | - |
| 1777033218 | 20.56° C | 95% | 1009.8 hPa | 0 mm | - | 102 W/m² | - |
| 1777032915 | 19.44° C | 98% | 1009.9 hPa | 0 mm | - | 69 W/m² | - |
| 1777032610 | 18.89° C | 99% | 1009.7 hPa | 0 mm | - | 81 W/m² | - |
| 1777032306 | 18.89° C | 99% | 1009.7 hPa | 0 mm | - | 51 W/m² | - |
| 1777031996 | 18.33° C | 99% | 1009.6 hPa | 0 mm | - | 54 W/m² | - |
| 1777031690 | 18.33° C | 99% | 1009.5 hPa | 0 mm | - | 32 W/m² | - |
| 1777031386 | 17.78° C | 99% | 1009.6 hPa | 0 mm | - | 30 W/m² | - |
| 1777031081 | 17.78° C | 99% | 1009.6 hPa | 0 mm | - | 26 W/m² | - |
| 1777030778 | 17.22° C | 99% | 1009.5 hPa | 0 mm | - | 24 W/m² | - |
| 1777030477 | 17.22° C | 99% | 1009.5 hPa | 0 mm | - | 23 W/m² | - |
| 1777030173 | 17.22° C | 99% | 1009.4 hPa | 0 mm | - | 22 W/m² | - |
| 1777029870 | 17.22° C | 99% | 1009.3 hPa | 0 mm | - | 21 W/m² | - |
| 1777029567 | 16.67° C | 99% | 1009.3 hPa | 0 mm | - | 17 W/m² | - |
| 1777029265 | 16.67° C | 99% | 1009.1 hPa | 0 mm | - | 15 W/m² | - |
| 1777028960 | 16.67° C | 99% | 1009.1 hPa | 0 mm | - | 12 W/m² | - |
| 1777028660 | 16.67° C | 99% | 1009.1 hPa | 0 mm | - | 10 W/m² | - |
| 1777028354 | 16.67° C | 98% | 1009.1 hPa | 0 mm | - | 6 W/m² | - |
| 1777028050 | 16.67° C | 98% | 1009 hPa | 0 mm | - | 4 W/m² | - |
| 1777027745 | 16.67° C | 98% | 1009 hPa | 0 mm | - | 2 W/m² | - |
| 1777027441 | 16.67° C | 98% | 1008.8 hPa | 0 mm | - | 1 W/m² | - |
* Rain latest hour (hover to see other rain measurements)
** Current wind speed in m/s (hover to see current wind gust speed)